Terminal Aerodrome Forecast
Issued by NWS

Home | Current Version | Previous Version | Text Only | Print | Product List | Glossary On
Versions: 1 2 3 4 5 6 7 8 9 10 11 12 13
000
FTUS45 KABQ 212300
TAFLVS
TAF
KLVS 212320Z 2200/2224 30015G25KT P6SM FEW050 SCT120
     FM220400 23015KT P6SM BKN120
     FM221700 27015G25KT P6SM BKN120 BKN250
     FM222200 30022G32KT P6SM BKN100 BKN150=

USA.gov is the U.S. government's official web portal to all federal, state and local government web resources and services.